PWSweather.com
Personal Weather Stations
Station Observations
WATERF01
WaterfordIE

WaterfordIE

Lat: 52.2412507, Lon: -7.1414691

Elevation: 65

Station Type: Davis Vantage Vue

Latest ConditionsUpdated 11:40:00 PM GMT Monday, Aug 31, 2015
Currently Today's Max Today's Min Today's Average
Temperature 53.3°F11.8°C 65.8°F18.8°C 53.3°F11.8°C 57.4°F14.1°C
Dew Point 50.1°F10.1°C 54.5°F12.5°C 49.8°F9.9°C 52.2°F11.2°C
Winds 3.5 mph NNW5.6 kmh NNW 9.2 mph NNW14.8 kmh NNW - 4.2 mph 6.8 kmh
Wind Gusts 5.8 mph9.3 kmh 15.0 mph24.1 kmh - -
Humidity 89% 94% 62% 83%
Pressure 30.13 in1020.3 mb 30.13 in1020.3 mb 30.05 in1017.6 mb -
Hour Temp Dew Point Humidity Winds Wind Gusts Pressure Precip Precip Rate Daily Precip Total
11:40 PM 53.3°F11.8°C 50.1°F10.1°C 89% 3.5 mph NNW5.6 kmh NNW 5.8 mph9.3 kmh 30.13 in1020.3 mb - 0.00 in0.0 mm 0.00 in0.0 mm
11:30 PM 53.4°F11.9°C 49.9°F9.9°C 88% 3.5 mph N5.6 kmh N 5.8 mph9.3 kmh 30.13 in1020.3 mb - 0.00 in0.0 mm 0.00 in0.0 mm
11:20 PM 53.3°F11.8°C 49.8°F9.9°C 88% 3.5 mph NNW5.6 kmh NNW 4.6 mph7.4 kmh 30.13 in1020.3 mb - 0.00 in0.0 mm 0.00 in0.0 mm
11:10 PM 53.3°F11.8°C 49.8°F9.9°C 88% 5.8 mph N9.3 kmh N 6.9 mph11.1 kmh 30.13 in1020.3 mb - 0.00 in0.0 mm 0.00 in0.0 mm
11:00 PM 53.5°F11.9°C 50.0°F10.0°C 88% 4.6 mph NNW7.4 kmh NNW 6.9 mph11.1 kmh 30.13 in1020.3 mb - 0.00 in0.0 mm 0.00 in0.0 mm
10:50 PM 53.7°F12.1°C 50.2°F10.1°C 88% 4.6 mph NW7.4 kmh NW 8.1 mph13.0 kmh 30.12 in1020.0 mb - 0.00 in0.0 mm 0.00 in0.0 mm
10:40 PM 53.7°F12.1°C 50.2°F10.1°C 88% 3.5 mph NNW5.6 kmh NNW 6.9 mph11.1 kmh 30.12 in1020.0 mb - 0.00 in0.0 mm 0.00 in0.0 mm
10:30 PM 53.6°F12.0°C 50.1°F10.1°C 88% 5.8 mph NNW9.3 kmh NNW 8.1 mph13.0 kmh 30.12 in1020.0 mb - 0.00 in0.0 mm 0.00 in0.0 mm
10:20 PM 53.8°F12.1°C 50.3°F10.2°C 88% 5.8 mph N9.3 kmh N 8.1 mph13.0 kmh 30.12 in1020.0 mb - 0.00 in0.0 mm 0.00 in0.0 mm
10:10 PM 54.0°F12.2°C 50.5°F10.3°C 88% 4.6 mph N7.4 kmh N 6.9 mph11.1 kmh 30.12 in1020.0 mb - 0.00 in0.0 mm 0.00 in0.0 mm
10:00 PM 54.3°F12.4°C 50.5°F10.3°C 87% 3.5 mph NW5.6 kmh NW 5.8 mph9.3 kmh 30.12 in1020.0 mb - 0.00 in0.0 mm 0.00 in0.0 mm
09:50 PM 54.7°F12.6°C 50.3°F10.2°C 85% 2.3 mph N3.7 kmh N 5.8 mph9.3 kmh 30.12 in1020.0 mb - 0.00 in0.0 mm 0.00 in0.0 mm
09:40 PM 55.1°F12.8°C 50.4°F10.2°C 84% 1.2 mph NNW1.9 kmh NNW 4.6 mph7.4 kmh 30.11 in1019.6 mb - 0.00 in0.0 mm 0.00 in0.0 mm
09:30 PM 55.5°F13.1°C 50.4°F10.2°C 83% 3.5 mph N5.6 kmh N 5.8 mph9.3 kmh 30.11 in1019.6 mb - 0.00 in0.0 mm 0.00 in0.0 mm
09:20 PM 55.5°F13.1°C 50.7°F10.4°C 84% 3.5 mph N5.6 kmh N 5.8 mph9.3 kmh 30.11 in1019.6 mb - 0.00 in0.0 mm 0.00 in0.0 mm
09:10 PM 55.6°F13.1°C 50.8°F10.4°C 84% 3.5 mph NNW5.6 kmh NNW 5.8 mph9.3 kmh 30.11 in1019.6 mb - 0.00 in0.0 mm 0.00 in0.0 mm
09:00 PM 55.9°F13.3°C 50.8°F10.4°C 83% 3.5 mph N5.6 kmh N 5.8 mph9.3 kmh 30.11 in1019.6 mb - 0.00 in0.0 mm 0.00 in0.0 mm
08:50 PM 56.2°F13.4°C 51.1°F10.6°C 83% 4.6 mph N7.4 kmh N 6.9 mph11.1 kmh 30.11 in1019.6 mb - 0.00 in0.0 mm 0.00 in0.0 mm
08:40 PM 56.6°F13.7°C 51.8°F11.0°C 84% 3.5 mph NNW5.6 kmh NNW 5.8 mph9.3 kmh 30.11 in1019.6 mb - 0.00 in0.0 mm 0.00 in0.0 mm
08:30 PM 56.6°F13.7°C 52.2°F11.2°C 85% 2.3 mph NNW3.7 kmh NNW 5.8 mph9.3 kmh 30.11 in1019.6 mb - 0.00 in0.0 mm 0.00 in0.0 mm
08:20 PM 56.8°F13.8°C 52.4°F11.3°C 85% 2.3 mph NW3.7 kmh NW 4.6 mph7.4 kmh 30.11 in1019.6 mb - 0.00 in0.0 mm 0.00 in0.0 mm
08:10 PM 57.1°F13.9°C 52.4°F11.3°C 84% Calm Calm 2.3 mph3.7 kmh 30.11 in1019.6 mb - 0.00 in0.0 mm 0.00 in0.0 mm
08:00 PM 57.5°F14.2°C 52.7°F11.5°C 84% 1.2 mph N1.9 kmh N 2.3 mph3.7 kmh 30.10 in1019.3 mb - 0.00 in0.0 mm 0.00 in0.0 mm
07:50 PM 57.8°F14.3°C 52.4°F11.3°C 82% 2.3 mph N3.7 kmh N 5.8 mph9.3 kmh 30.10 in1019.3 mb - 0.00 in0.0 mm 0.00 in0.0 mm
07:40 PM 58.2°F14.6°C 52.7°F11.5°C 82% 1.2 mph NW1.9 kmh NW 2.3 mph3.7 kmh 30.10 in1019.3 mb - 0.00 in0.0 mm 0.00 in0.0 mm
07:20 PM 58.9°F14.9°C 53.4°F11.9°C 82% Calm Calm -- 30.10 in1019.3 mb - 0.00 in0.0 mm 0.00 in0.0 mm
07:10 PM 59.1°F15.1°C 53.3°F11.8°C 81% 1.2 mph NNE1.9 kmh NNE 2.3 mph3.7 kmh 30.09 in1019.0 mb - 0.00 in0.0 mm 0.00 in0.0 mm
06:50 PM 59.5°F15.3°C 53.6°F12.0°C 81% 1.2 mph NNE1.9 kmh NNE 4.6 mph7.4 kmh 30.09 in1019.0 mb - 0.00 in0.0 mm 0.00 in0.0 mm
06:40 PM 58.6°F14.8°C 53.1°F11.7°C 82% Calm Calm -- 30.09 in1019.0 mb - 0.00 in0.0 mm 0.00 in0.0 mm
06:20 PM 58.7°F14.8°C 52.9°F11.6°C 81% Calm Calm -- 30.09 in1019.0 mb - 0.00 in0.0 mm 0.00 in0.0 mm
06:10 PM 59.0°F15.0°C 53.2°F11.8°C 81% 1.2 mph SW1.9 kmh SW 2.3 mph3.7 kmh 30.09 in1019.0 mb - 0.00 in0.0 mm 0.00 in0.0 mm
05:50 PM 59.2°F15.1°C 52.3°F11.3°C 78% 3.5 mph NW5.6 kmh NW 8.1 mph13.0 kmh 30.08 in1018.6 mb - 0.00 in0.0 mm 0.00 in0.0 mm
05:40 PM 59.2°F15.1°C 52.7°F11.5°C 79% 3.5 mph NNW5.6 kmh NNW 5.8 mph9.3 kmh 30.08 in1018.6 mb - 0.00 in0.0 mm 0.00 in0.0 mm
05:20 PM 59.2°F15.1°C 52.0°F11.1°C 77% 4.6 mph NW7.4 kmh NW 8.1 mph13.0 kmh 30.08 in1018.6 mb - 0.00 in0.0 mm 0.00 in0.0 mm
05:10 PM 58.8°F14.9°C 52.0°F11.1°C 78% 2.3 mph NW3.7 kmh NW 4.6 mph7.4 kmh 30.08 in1018.6 mb - 0.00 in0.0 mm 0.00 in0.0 mm
04:50 PM 58.6°F14.8°C 52.4°F11.3°C 80% 2.3 mph NW3.7 kmh NW 5.8 mph9.3 kmh 30.08 in1018.6 mb - 0.00 in0.0 mm 0.00 in0.0 mm
04:40 PM 58.9°F14.9°C 52.1°F11.2°C 78% 4.6 mph NW7.4 kmh NW 8.1 mph13.0 kmh 30.08 in1018.6 mb - 0.00 in0.0 mm 0.00 in0.0 mm
04:20 PM 61.6°F16.4°C 51.3°F10.7°C 69% 5.8 mph NW9.3 kmh NW 8.1 mph13.0 kmh 30.08 in1018.6 mb - 0.00 in0.0 mm 0.00 in0.0 mm
04:10 PM 62.4°F16.9°C 52.1°F11.2°C 69% 1.2 mph NE1.9 kmh NE 2.3 mph3.7 kmh 30.08 in1018.6 mb - 0.00 in0.0 mm 0.00 in0.0 mm
03:50 PM 64.1°F17.8°C 54.5°F12.5°C 71% 5.8 mph NNW9.3 kmh NNW 11.5 mph18.5 kmh 30.08 in1018.6 mb - 0.00 in0.0 mm 0.00 in0.0 mm
03:40 PM 63.3°F17.4°C 53.0°F11.7°C 69% 5.8 mph NW9.3 kmh NW 9.2 mph14.8 kmh 30.07 in1018.3 mb - 0.00 in0.0 mm 0.00 in0.0 mm
03:20 PM 61.8°F16.6°C 51.9°F11.1°C 70% 5.8 mph NW9.3 kmh NW 11.5 mph18.5 kmh 30.07 in1018.3 mb - 0.00 in0.0 mm 0.00 in0.0 mm
03:10 PM 61.6°F16.4°C 52.1°F11.2°C 71% 8.1 mph N13.0 kmh N 11.5 mph18.5 kmh 30.07 in1018.3 mb - 0.00 in0.0 mm 0.00 in0.0 mm
02:50 PM 60.7°F15.9°C 53.4°F11.9°C 77% 8.1 mph NW13.0 kmh NW 12.7 mph20.4 kmh 30.07 in1018.3 mb - 0.00 in0.0 mm 0.00 in0.0 mm
02:40 PM 60.6°F15.9°C 52.6°F11.4°C 75% 8.1 mph NW13.0 kmh NW 15.0 mph24.1 kmh 30.07 in1018.3 mb - 0.00 in0.0 mm 0.00 in0.0 mm
02:20 PM 61.3°F16.3°C 53.7°F12.1°C 76% 6.9 mph NNW11.1 kmh NNW 11.5 mph18.5 kmh 30.07 in1018.3 mb - 0.00 in0.0 mm 0.00 in0.0 mm
02:10 PM 60.9°F16.1°C 53.6°F12.0°C 77% 9.2 mph NNW14.8 kmh NNW 13.8 mph22.2 kmh 30.07 in1018.3 mb - 0.00 in0.0 mm 0.00 in0.0 mm
01:50 PM 62.5°F16.9°C 54.1°F12.3°C 74% 9.2 mph NNW14.8 kmh NNW 13.8 mph22.2 kmh 30.07 in1018.3 mb - 0.00 in0.0 mm 0.00 in0.0 mm
01:40 PM 64.9°F18.3°C 52.4°F11.3°C 64% 6.9 mph NNW11.1 kmh NNW 11.5 mph18.5 kmh 30.07 in1018.3 mb - 0.00 in0.0 mm 0.00 in0.0 mm
01:20 PM 65.2°F18.4°C 51.9°F11.1°C 62% 6.9 mph N11.1 kmh N 12.7 mph20.4 kmh 30.07 in1018.3 mb - 0.00 in0.0 mm 0.00 in0.0 mm
01:10 PM 65.8°F18.8°C 53.3°F11.8°C 64% Calm Calm 2.3 mph3.7 kmh 30.07 in1018.3 mb - 0.00 in0.0 mm 0.00 in0.0 mm
12:50 PM 65.1°F18.4°C 53.0°F11.7°C 65% 4.6 mph NE7.4 kmh NE 6.9 mph11.1 kmh 30.07 in1018.3 mb - 0.00 in0.0 mm 0.00 in0.0 mm
12:40 PM 64.8°F18.2°C 53.6°F12.0°C 67% 3.5 mph N5.6 kmh N 8.1 mph13.0 kmh 30.07 in1018.3 mb - 0.00 in0.0 mm 0.00 in0.0 mm
12:20 PM 64.6°F18.1°C 53.4°F11.9°C 67% 3.5 mph NNE5.6 kmh NNE 6.9 mph11.1 kmh 30.07 in1018.3 mb - 0.00 in0.0 mm 0.00 in0.0 mm
12:10 PM 63.2°F17.3°C 52.9°F11.6°C 69% 3.5 mph N5.6 kmh N 8.1 mph13.0 kmh 30.07 in1018.3 mb - 0.00 in0.0 mm 0.00 in0.0 mm
11:50 AM 63.7°F17.6°C 52.9°F11.6°C 68% 4.6 mph N7.4 kmh N 8.1 mph13.0 kmh 30.07 in1018.3 mb - 0.00 in0.0 mm 0.00 in0.0 mm
11:40 AM 64.7°F18.2°C 53.5°F11.9°C 67% 6.9 mph N11.1 kmh N 11.5 mph18.5 kmh 30.07 in1018.3 mb - 0.00 in0.0 mm 0.00 in0.0 mm
11:20 AM 63.6°F17.6°C 52.9°F11.6°C 68% 5.8 mph N9.3 kmh N 11.5 mph18.5 kmh 30.07 in1018.3 mb - 0.00 in0.0 mm 0.00 in0.0 mm
11:10 AM 64.3°F17.9°C 53.9°F12.2°C 69% 5.8 mph N9.3 kmh N 12.7 mph20.4 kmh 30.06 in1017.9 mb - 0.00 in0.0 mm 0.00 in0.0 mm
10:50 AM 62.0°F16.7°C 54.0°F12.2°C 75% 5.8 mph NE9.3 kmh NE 11.5 mph18.5 kmh 30.07 in1018.3 mb - 0.00 in0.0 mm 0.00 in0.0 mm
10:40 AM 60.9°F16.1°C 54.0°F12.2°C 78% 4.6 mph N7.4 kmh N 9.2 mph14.8 kmh 30.07 in1018.3 mb - 0.00 in0.0 mm 0.00 in0.0 mm
10:20 AM 59.8°F15.4°C 54.0°F12.2°C 81% 4.6 mph N7.4 kmh N 9.2 mph14.8 kmh 30.07 in1018.3 mb - 0.00 in0.0 mm 0.00 in0.0 mm
10:10 AM 59.8°F15.4°C 54.0°F12.2°C 81% 2.3 mph NW3.7 kmh NW 4.6 mph7.4 kmh 30.07 in1018.3 mb - 0.00 in0.0 mm 0.00 in0.0 mm
09:50 AM 59.5°F15.3°C 54.0°F12.2°C 82% 4.6 mph N7.4 kmh N 6.9 mph11.1 kmh 30.07 in1018.3 mb - 0.00 in0.0 mm 0.00 in0.0 mm
09:40 AM 59.3°F15.2°C 54.2°F12.3°C 83% 5.8 mph NNW9.3 kmh NNW 8.1 mph13.0 kmh 30.06 in1017.9 mb - 0.00 in0.0 mm 0.00 in0.0 mm
09:20 AM 58.2°F14.6°C 53.7°F12.1°C 85% 4.6 mph NNW7.4 kmh NNW 8.1 mph13.0 kmh 30.06 in1017.9 mb - 0.00 in0.0 mm 0.00 in0.0 mm
09:10 AM 58.0°F14.4°C 53.8°F12.1°C 86% 5.8 mph N9.3 kmh N 11.5 mph18.5 kmh 30.06 in1017.9 mb - 0.00 in0.0 mm 0.00 in0.0 mm
08:50 AM 57.5°F14.2°C 53.7°F12.1°C 87% 3.5 mph NNE5.6 kmh NNE 5.8 mph9.3 kmh 30.06 in1017.9 mb - 0.00 in0.0 mm 0.00 in0.0 mm
08:40 AM 57.0°F13.9°C 53.1°F11.7°C 87% 6.9 mph N11.1 kmh N 8.1 mph13.0 kmh 30.06 in1017.9 mb - 0.00 in0.0 mm 0.00 in0.0 mm
08:20 AM 55.9°F13.3°C 52.7°F11.5°C 89% 8.1 mph N13.0 kmh N 13.8 mph22.2 kmh 30.06 in1017.9 mb - 0.00 in0.0 mm 0.00 in0.0 mm
08:10 AM 55.7°F13.2°C 52.5°F11.4°C 89% 8.1 mph NNW13.0 kmh NNW 11.5 mph18.5 kmh 30.06 in1017.9 mb - 0.00 in0.0 mm 0.00 in0.0 mm
07:50 AM 55.1°F12.8°C 52.3°F11.3°C 90% 5.8 mph N9.3 kmh N 9.2 mph14.8 kmh 30.05 in1017.6 mb - 0.00 in0.0 mm 0.00 in0.0 mm
07:40 AM 54.8°F12.7°C 51.9°F11.1°C 90% 5.8 mph NW9.3 kmh NW 8.1 mph13.0 kmh 30.05 in1017.6 mb - 0.00 in0.0 mm 0.00 in0.0 mm
07:20 AM 54.4°F12.4°C 51.8°F11.0°C 91% 6.9 mph NNW11.1 kmh NNW 11.5 mph18.5 kmh 30.05 in1017.6 mb - 0.00 in0.0 mm 0.00 in0.0 mm
07:10 AM 54.1°F12.3°C 51.5°F10.8°C 91% 5.8 mph NW9.3 kmh NW 11.5 mph18.5 kmh 30.05 in1017.6 mb - 0.00 in0.0 mm 0.00 in0.0 mm
06:50 AM 53.6°F12.0°C 51.0°F10.6°C 91% 4.6 mph NW7.4 kmh NW 8.1 mph13.0 kmh 30.05 in1017.6 mb - 0.00 in0.0 mm 0.00 in0.0 mm
06:40 AM 53.5°F11.9°C 50.9°F10.5°C 91% 4.6 mph N7.4 kmh N 8.1 mph13.0 kmh 30.05 in1017.6 mb - 0.00 in0.0 mm 0.00 in0.0 mm
06:20 AM 53.6°F12.0°C 50.7°F10.4°C 90% 2.3 mph NNW3.7 kmh NNW 5.8 mph9.3 kmh 30.06 in1017.9 mb - 0.00 in0.0 mm 0.00 in0.0 mm
06:10 AM 53.7°F12.1°C 50.8°F10.4°C 90% 2.3 mph NW3.7 kmh NW 4.6 mph7.4 kmh 30.06 in1017.9 mb - 0.00 in0.0 mm 0.00 in0.0 mm
05:50 AM 53.9°F12.2°C 51.0°F10.6°C 90% 3.5 mph NNW5.6 kmh NNW 5.8 mph9.3 kmh 30.06 in1017.9 mb - 0.00 in0.0 mm 0.00 in0.0 mm
05:40 AM 54.1°F12.3°C 50.9°F10.5°C 89% 1.2 mph N1.9 kmh N 2.3 mph3.7 kmh 30.06 in1017.9 mb - 0.00 in0.0 mm 0.00 in0.0 mm
05:20 AM 54.2°F12.3°C 51.0°F10.6°C 89% 4.6 mph NNW7.4 kmh NNW 8.1 mph13.0 kmh 30.06 in1017.9 mb - 0.00 in0.0 mm 0.00 in0.0 mm
05:10 AM 54.3°F12.4°C 51.1°F10.6°C 89% 4.6 mph NNW7.4 kmh NNW 5.8 mph9.3 kmh 30.06 in1017.9 mb - 0.00 in0.0 mm 0.00 in0.0 mm
05:00 AM 54.5°F12.5°C 51.3°F10.7°C 89% 5.8 mph NNW9.3 kmh NNW 9.2 mph14.8 kmh 30.05 in1017.6 mb - 0.00 in0.0 mm 0.00 in0.0 mm
04:50 AM 54.6°F12.6°C 51.4°F10.8°C 89% 4.6 mph N7.4 kmh N 6.9 mph11.1 kmh 30.06 in1017.9 mb - 0.00 in0.0 mm 0.00 in0.0 mm
04:40 AM 54.7°F12.6°C 51.2°F10.7°C 88% 5.8 mph NNW9.3 kmh NNW 8.1 mph13.0 kmh 30.06 in1017.9 mb - 0.00 in0.0 mm 0.00 in0.0 mm
04:30 AM 54.8°F12.7°C 51.4°F10.8°C 88% 3.5 mph NNW5.6 kmh NNW 5.8 mph9.3 kmh 30.06 in1017.9 mb - 0.00 in0.0 mm 0.00 in0.0 mm
04:20 AM 54.9°F12.7°C 51.4°F10.8°C 88% 5.8 mph NW9.3 kmh NW 8.1 mph13.0 kmh 30.06 in1017.9 mb - 0.00 in0.0 mm 0.00 in0.0 mm
04:10 AM 54.9°F12.7°C 51.5°F10.8°C 88% 2.3 mph NNW3.7 kmh NNW 5.8 mph9.3 kmh 30.06 in1017.9 mb - 0.00 in0.0 mm 0.00 in0.0 mm
04:00 AM 55.0°F12.8°C 51.5°F10.8°C 88% 2.3 mph N3.7 kmh N 5.8 mph9.3 kmh 30.06 in1017.9 mb - 0.00 in0.0 mm 0.00 in0.0 mm
03:50 AM 55.1°F12.8°C 51.6°F10.9°C 88% 5.8 mph NNW9.3 kmh NNW 9.2 mph14.8 kmh 30.06 in1017.9 mb - 0.00 in0.0 mm 0.00 in0.0 mm
03:40 AM 55.1°F12.8°C 51.6°F10.9°C 88% 4.6 mph N7.4 kmh N 8.1 mph13.0 kmh 30.06 in1017.9 mb - 0.00 in0.0 mm 0.00 in0.0 mm
03:30 AM 55.1°F12.8°C 51.6°F10.9°C 88% 4.6 mph NNW7.4 kmh NNW 6.9 mph11.1 kmh 30.06 in1017.9 mb - 0.00 in0.0 mm 0.00 in0.0 mm
03:20 AM 55.1°F12.8°C 51.6°F10.9°C 88% 4.6 mph NW7.4 kmh NW 6.9 mph11.1 kmh 30.06 in1017.9 mb - 0.00 in0.0 mm 0.00 in0.0 mm
03:10 AM 55.2°F12.9°C 51.7°F10.9°C 88% 5.8 mph NW9.3 kmh NW 8.1 mph13.0 kmh 30.06 in1017.9 mb - 0.00 in0.0 mm 0.00 in0.0 mm
03:00 AM 55.3°F12.9°C 51.8°F11.0°C 88% 3.5 mph NNW5.6 kmh NNW 8.1 mph13.0 kmh 30.06 in1017.9 mb - 0.00 in0.0 mm 0.00 in0.0 mm
02:50 AM 55.3°F12.9°C 51.8°F11.0°C 88% 5.8 mph NW9.3 kmh NW 8.1 mph13.0 kmh 30.07 in1018.3 mb - 0.00 in0.0 mm 0.00 in0.0 mm
02:40 AM 55.4°F13.0°C 52.2°F11.2°C 89% 4.6 mph N7.4 kmh N 6.9 mph11.1 kmh 30.07 in1018.3 mb - 0.00 in0.0 mm 0.00 in0.0 mm
02:30 AM 55.5°F13.1°C 52.3°F11.3°C 89% 4.6 mph NW7.4 kmh NW 8.1 mph13.0 kmh 30.07 in1018.3 mb - 0.00 in0.0 mm 0.00 in0.0 mm
02:20 AM 55.5°F13.1°C 52.3°F11.3°C 89% 5.8 mph NNW9.3 kmh NNW 8.1 mph13.0 kmh 30.07 in1018.3 mb - 0.00 in0.0 mm 0.00 in0.0 mm
02:10 AM 55.6°F13.1°C 52.7°F11.5°C 90% 3.5 mph NW5.6 kmh NW 5.8 mph9.3 kmh 30.07 in1018.3 mb - 0.00 in0.0 mm 0.00 in0.0 mm
02:00 AM 55.7°F13.2°C 52.8°F11.6°C 90% 3.5 mph N5.6 kmh N 5.8 mph9.3 kmh 30.07 in1018.3 mb - 0.00 in0.0 mm 0.00 in0.0 mm
01:50 AM 55.5°F13.1°C 52.9°F11.6°C 91% 3.5 mph NW5.6 kmh NW 5.8 mph9.3 kmh 30.07 in1018.3 mb - 0.00 in0.0 mm 0.00 in0.0 mm
01:40 AM 55.4°F13.0°C 52.9°F11.6°C 91% 6.9 mph N11.1 kmh N 11.5 mph18.5 kmh 30.07 in1018.3 mb - 0.00 in0.0 mm 0.00 in0.0 mm
01:30 AM 55.3°F12.9°C 53.0°F11.7°C 92% 5.8 mph N9.3 kmh N 8.1 mph13.0 kmh 30.07 in1018.3 mb - 0.00 in0.0 mm 0.00 in0.0 mm
01:20 AM 55.2°F12.9°C 52.9°F11.6°C 92% 4.6 mph NNW7.4 kmh NNW 8.1 mph13.0 kmh 30.07 in1018.3 mb - 0.00 in0.0 mm 0.00 in0.0 mm
01:10 AM 55.2°F12.9°C 53.2°F11.8°C 93% 5.8 mph NNW9.3 kmh NNW 9.2 mph14.8 kmh 30.07 in1018.3 mb - 0.00 in0.0 mm 0.00 in0.0 mm
01:00 AM 55.3°F12.9°C 53.6°F12.0°C 94% 3.5 mph NW5.6 kmh NW 5.8 mph9.3 kmh 30.07 in1018.3 mb - 0.00 in0.0 mm 0.00 in0.0 mm
12:50 AM 55.4°F13.0°C 53.7°F12.1°C 94% 2.3 mph NW3.7 kmh NW 4.6 mph7.4 kmh 30.08 in1018.6 mb - 0.00 in0.0 mm 0.00 in0.0 mm
12:40 AM 55.1°F12.8°C 53.4°F11.9°C 94% 3.5 mph NW5.6 kmh NW 5.8 mph9.3 kmh 30.08 in1018.6 mb - 0.00 in0.0 mm 0.00 in0.0 mm
12:30 AM 54.9°F12.7°C 53.2°F11.8°C 94% Calm Calm -- 30.08 in1018.6 mb - 0.00 in0.0 mm 0.00 in0.0 mm
12:20 AM 54.8°F12.7°C 53.1°F11.7°C 94% Calm Calm -- 30.08 in1018.6 mb - 0.00 in0.0 mm 0.00 in0.0 mm
12:10 AM 54.6°F12.6°C 52.9°F11.6°C 94% Calm Calm -- 30.08 in1018.6 mb - 0.00 in0.0 mm 0.00 in0.0 mm
12:00 AM 54.6°F12.6°C 52.9°F11.6°C 94% Calm Calm -- 30.08 in1018.6 mb - 0.00 in0.0 mm 0.00 in0.0 mm